Time,TemperatureF,DewpointF,PressureIn,WindDirection,WindDirectionDegrees,WindSpeedMPH,WindSpeedGustMPH,Humidity,HourlyPrecipIn,Conditions,Clouds,dailyrainin,SoftwareType,DateUTC
2013-02-11 15:15:00,39.1,35.0,30.00,North,353,1.0,2.0,85,0.22,,,0.10,Wunderground v.1.15,2013-02-11 22:15:00,
2013-02-11 15:20:00,38.9,34.8,30.00,NNW,329,1.0,3.0,85,0.17,,,0.11,Wunderground v.1.15,2013-02-11 22:20:00,
2013-02-11 15:25:00,38.6,34.5,30.00,NW,319,1.0,5.0,85,0.13,,,0.13,Wunderground v.1.15,2013-02-11 22:25:00,
2013-02-11 15:35:00,38.3,34.8,29.99,NW,305,2.0,2.0,87,0.09,,,0.14,Wunderground v.1.15,2013-02-11 22:35:00,
2013-02-11 15:40:00,38.3,34.8,29.99,NW,305,1.0,3.0,87,0.09,,,0.15,Wunderground v.1.15,2013-02-11 22:40:00,
2013-02-11 15:45:00,38.3,35.1,30.01,NW,305,1.0,1.0,88,0.07,,,0.16,Wunderground v.1.15,2013-02-11 22:45:00,
2013-02-11 15:55:00,38.3,35.1,30.01,NW,305,0.0,0.0,88,0.07,,,0.17,Wunderground v.1.15,2013-02-11 22:55:00,
2013-02-11 16:05:00,38.0,35.0,30.01,NW,305,1.0,8.0,89,0.09,,,0.18,Wunderground v.1.15,2013-02-11 23:05:00,
2013-02-11 16:15:00,37.9,34.9,30.00,NW,305,0.0,8.0,89,0.08,,,0.19,Wunderground v.1.15,2013-02-11 23:15:00,
2013-02-11 16:25:00,38.0,35.3,30.00,NW,305,0.0,8.0,90,0.05,,,0.20,Wunderground v.1.15,2013-02-11 23:25:00,
2013-02-11 16:35:00,38.2,35.5,30.00,NW,305,0.0,8.0,90,0.04,,,0.20,Wunderground v.1.15,2013-02-11 23:35:00,
2013-02-11 16:45:00,38.2,35.5,30.00,NW,305,0.0,8.0,90,0.00,,,0.20,Wunderground v.1.15,2013-02-11 23:45:00,
2013-02-11 16:55:00,38.2,35.8,30.00,NW,305,0.0,8.0,91,0.00,,,0.20,Wunderground v.1.15,2013-02-11 23:55:00,
2013-02-11 17:00:00,38.2,35.5,30.00,NW,305,0.0,8.0,90,0.00,,,0.20,Wunderground v.1.15,2013-02-12 00:00:00,
2013-02-11 17:10:00,38.2,35.5,30.00,NW,305,0.0,8.0,90,0.00,,,0.20,Wunderground v.1.15,2013-02-12 00:10:00,
2013-02-11 17:15:00,38.2,35.5,30.02,NW,305,0.0,8.0,90,0.00,,,0.20,Wunderground v.1.15,2013-02-12 00:15:00,
2013-02-11 17:25:00,38.3,35.6,30.02,NW,305,0.0,8.0,90,0.00,,,0.20,Wunderground v.1.15,2013-02-12 00:25:00,
2013-02-11 17:30:00,38.5,35.8,30.01,NW,305,1.0,8.0,90,0.00,,,0.20,Wunderground v.1.15,2013-02-12 00:30:00,
2013-02-11 17:40:00,38.5,35.8,30.01,WSW,237,1.0,1.0,90,0.00,,,0.20,Wunderground v.1.15,2013-02-12 00:40:00,
2013-02-11 17:50:00,38.8,36.1,30.02,WSW,237,0.0,8.0,90,0.00,,,0.20,Wunderground v.1.15,2013-02-12 00:50:00,
2013-02-11 18:00:00,38.8,36.1,30.02,SW,215,1.0,8.0,90,0.00,,,0.20,Wunderground v.1.15,2013-02-12 01:00:00,
2013-02-11 18:10:00,38.8,36.1,30.02,SW,215,1.0,1.0,90,0.00,,,0.20,Wunderground v.1.15,2013-02-12 01:10:00,
2013-02-11 18:15:00,38.8,36.1,30.03,SW,215,1.0,2.0,90,0.00,,,0.20,Wunderground v.1.15,2013-02-12 01:15:00,
2013-02-11 18:25:00,38.8,36.1,30.03,SW,216,1.0,8.0,90,0.00,,,0.20,Wunderground v.1.15,2013-02-12 01:25:00,
2013-02-11 18:35:00,38.8,36.1,30.03,SW,216,1.0,2.0,90,0.00,,,0.20,Wunderground v.1.15,2013-02-12 01:35:00,
2013-02-11 18:40:00,38.6,35.9,30.03,SW,216,1.0,8.0,90,0.00,,,0.20,Wunderground v.1.15,2013-02-12 01:40:00,
2013-02-11 18:50:00,38.8,36.4,30.03,SW,216,1.0,8.0,91,0.00,,,0.20,Wunderground v.1.15,2013-02-12 01:50:00,
2013-02-11 19:00:00,38.9,36.5,30.04,SW,216,0.0,8.0,91,0.00,,,0.20,Wunderground v.1.15,2013-02-12 02:00:00,
2013-02-11 19:05:00,38.9,36.5,30.04,SW,216,0.0,8.0,91,0.00,,,0.20,Wunderground v.1.15,2013-02-12 02:05:00,
2013-02-11 19:15:00,38.9,36.5,30.04,SW,216,0.0,8.0,91,0.00,,,0.20,Wunderground v.1.15,2013-02-12 02:15:00,
2013-02-11 19:25:00,38.9,36.5,30.04,SW,216,0.0,8.0,91,0.00,,,0.20,Wunderground v.1.15,2013-02-12 02:25:00,